Time;durP1;ratioP1;P1;durP2;ratioP2;P2;SDS_P1;SDS_P2;PMS_P1;PMS_P2;Temp;Humidity;BMP_temperature;BMP_pressure;BME280_temperature;BME280_humidity;BME280_pressure;Samples;Min_cycle;Max_cycle;Signal;HPM_P1;HPM_P2
2022/07/27 00:00:13;;;;;;;3.17;1.55;;;14.90;99.90;;;;;;5094154;28;20224;-68
2022/07/27 00:02:40;;;;;;;5.77;1.50;;;14.90;99.90;;;;;;5093189;28;20202;-69
2022/07/27 00:05:08;;;;;;;3.35;1.50;;;15.00;99.90;;;;;;5094144;28;20225;-69
2022/07/27 00:07:35;;;;;;;5.53;1.42;;;15.00;99.90;;;;;;5093361;28;20209;-69
2022/07/27 00:10:01;;;;;;;5.95;1.73;;;15.00;99.90;;;;;;5093676;28;20236;-68
2022/07/27 00:12:30;;;;;;;5.40;1.65;;;15.00;99.90;;;;;;5054012;28;1147685;-69
2022/07/27 00:14:58;;;;;;;10.90;1.63;;;15.00;99.90;;;;;;5095308;28;20202;-69
2022/07/27 00:17:24;;;;;;;4.20;1.60;;;14.90;99.90;;;;;;5094779;28;20266;-70
2022/07/27 00:19:52;;;;;;;2.58;1.50;;;15.00;99.90;;;;;;5095433;28;20209;-69
2022/07/27 00:22:19;;;;;;;5.82;1.50;;;14.90;99.90;;;;;;5093601;28;20208;-68
2022/07/27 00:24:46;;;;;;;4.15;1.63;;;14.70;99.90;;;;;;5094642;28;20240;-69
2022/07/27 00:27:13;;;;;;;3.47;1.30;;;14.70;99.90;;;;;;5094043;28;20255;-69
2022/07/27 00:29:41;;;;;;;3.23;1.47;;;14.80;99.90;;;;;;5094944;28;20231;-68
2022/07/27 00:32:09;;;;;;;5.55;1.70;;;14.80;99.90;;;;;;5093166;28;20633;-69
2022/07/27 00:34:36;;;;;;;3.47;1.80;;;14.90;99.90;;;;;;5094584;28;20197;-69
2022/07/27 00:37:03;;;;;;;6.93;1.83;;;15.00;99.90;;;;;;5093941;28;20202;-68
2022/07/27 00:39:30;;;;;;;3.33;1.47;;;14.90;99.90;;;;;;5094781;28;20558;-68
2022/07/27 00:41:57;;;;;;;7.50;2.57;;;14.90;99.90;;;;;;5093802;28;20204;-68
2022/07/27 00:44:28;;;;;;;5.00;1.93;;;14.90;99.90;;;;;;5080136;28;20758;-69
2022/07/27 00:46:57;;;;;;;6.93;1.87;;;14.60;99.90;;;;;;5088132;28;20682;-69
2022/07/27 00:49:25;;;;;;;6.90;1.87;;;14.60;99.90;;;;;;5093776;28;20289;-68
2022/07/27 00:51:53;;;;;;;3.43;1.50;;;14.60;99.90;;;;;;5093613;28;20790;-69
2022/07/27 00:54:21;;;;;;;7.80;1.87;;;14.50;99.90;;;;;;5087144;28;20644;-69
2022/07/27 00:56:49;;;;;;;4.80;1.80;;;14.50;99.90;;;;;;5093931;28;20197;-69
2022/07/27 00:59:16;;;;;;;5.07;2.03;;;14.60;99.90;;;;;;5094296;28;20198;-69
2022/07/27 01:01:43;;;;;;;3.93;1.40;;;14.70;99.90;;;;;;5094300;28;20204;-69
2022/07/27 01:04:11;;;;;;;6.73;1.80;;;14.70;99.90;;;;;;5093968;28;20213;-70
2022/07/27 01:06:38;;;;;;;4.17;1.87;;;14.60;99.90;;;;;;5094256;28;20964;-69
2022/07/27 01:11:49;;;;;;;9.20;2.23;;;14.30;99.90;;;;;;5094055;28;20208;-69
2022/07/27 01:14:17;;;;;;;4.13;1.50;;;14.20;99.90;;;;;;5093477;28;20202;-69
2022/07/27 01:16:44;;;;;;;4.23;1.50;;;14.10;99.90;;;;;;5075271;28;20198;-69
2022/07/27 01:19:14;;;;;;;4.87;2.10;;;14.20;99.90;;;;;;5093322;28;20565;-69
2022/07/27 01:21:43;;;;;;;9.20;1.90;;;14.30;99.90;;;;;;5094087;28;20186;-69
2022/07/27 01:24:10;;;;;;;7.33;1.70;;;14.30;99.90;;;;;;5093497;28;20228;-68
2022/07/27 01:26:38;;;;;;;6.07;2.00;;;14.40;99.90;;;;;;5093495;28;20651;-69
2022/07/27 01:29:05;;;;;;;4.87;1.63;;;14.20;99.90;;;;;;5093578;28;20201;-69
2022/07/27 01:31:32;;;;;;;5.13;1.53;;;14.00;99.90;;;;;;5093375;28;20202;-64
2022/07/27 01:33:59;;;;;;;8.97;1.90;;;13.80;99.90;;;;;;5092975;28;20197;-64
2022/07/27 01:36:26;;;;;;;3.97;1.67;;;13.70;99.90;;;;;;5093539;28;20200;-64
2022/07/27 01:38:55;;;;;;;8.67;2.20;;;14.00;99.90;;;;;;5093617;28;20671;-64
2022/07/27 01:41:22;;;;;;;3.67;1.80;;;13.90;99.90;;;;;;5092895;28;20205;-64
2022/07/27 01:43:48;;;;;;;3.67;1.90;;;13.60;99.90;;;;;;5093182;28;20588;-64
2022/07/27 01:46:16;;;;;;;2.63;1.67;;;13.70;99.90;;;;;;5093627;28;20198;-64
2022/07/27 01:48:43;;;;;;;6.30;1.50;;;13.60;99.90;;;;;;5093186;28;20625;-64
2022/07/27 01:51:10;;;;;;;6.23;1.80;;;13.60;99.90;;;;;;5092182;28;20285;-64
2022/07/27 01:53:37;;;;;;;8.43;1.97;;;13.50;99.90;;;;;;5091691;28;20203;-64
2022/07/27 01:56:09;;;;;;;4.23;1.60;;;13.20;99.90;;;;;;5092753;28;20198;-64
2022/07/27 01:58:37;;;;;;;8.10;2.07;;;13.40;99.90;;;;;;5092415;28;20205;-64
2022/07/27 02:01:04;;;;;;;3.50;1.60;;;13.30;99.90;;;;;;5092480;28;20196;-65
2022/07/27 02:03:31;;;;;;;4.77;2.10;;;13.30;99.90;;;;;;5091114;28;20280;-64
2022/07/27 02:05:58;;;;;;;6.50;1.63;;;13.40;99.90;;;;;;5091894;28;20285;-64
2022/07/27 02:08:25;;;;;;;7.07;1.93;;;13.30;99.90;;;;;;5091405;28;20208;-64
2022/07/27 02:13:37;;;;;;;5.80;1.63;;;13.30;99.90;;;;;;5089793;28;20204;-64
2022/07/27 02:16:05;;;;;;;6.97;1.67;;;13.20;99.90;;;;;;5092690;28;20201;-64
2022/07/27 02:18:31;;;;;;;7.67;1.80;;;13.20;99.90;;;;;;5091806;28;20202;-64
2022/07/27 02:20:58;;;;;;;2.90;1.60;;;13.00;99.90;;;;;;5092323;28;20205;-64
2022/07/27 02:23:26;;;;;;;4.37;1.70;;;13.20;99.90;;;;;;5093204;28;20196;-64
2022/07/27 02:25:53;;;;;;;5.07;2.07;;;13.20;99.90;;;;;;5092465;28;20243;-64
2022/07/27 02:28:20;;;;;;;5.70;1.70;;;13.30;99.90;;;;;;5091932;28;20210;-64
2022/07/27 02:30:49;;;;;;;6.47;2.03;;;13.30;99.90;;;;;;5092895;28;20704;-64
2022/07/27 02:33:16;;;;;;;6.67;2.00;;;13.40;99.90;;;;;;5091192;28;20208;-64
2022/07/27 02:35:42;;;;;;;3.80;1.70;;;13.40;99.90;;;;;;5091783;28;20229;-64
2022/07/27 02:38:09;;;;;;;3.87;1.77;;;13.50;99.90;;;;;;5092653;28;20202;-64
2022/07/27 02:40:36;;;;;;;4.57;1.70;;;13.10;99.90;;;;;;5091852;28;20201;-64
2022/07/27 02:43:03;;;;;;;4.87;1.70;;;13.20;99.90;;;;;;5092592;28;20651;-64
2022/07/27 02:45:30;;;;;;;9.23;2.00;;;13.40;99.90;;;;;;5091594;28;20228;-64
2022/07/27 02:47:58;;;;;;;6.87;1.87;;;13.50;99.90;;;;;;5086657;28;20200;-64
2022/07/27 02:50:25;;;;;;;4.23;1.70;;;13.60;99.90;;;;;;5088332;28;20684;-64
2022/07/27 02:52:52;;;;;;;4.90;1.70;;;13.50;99.90;;;;;;5091011;28;20208;-65
2022/07/27 02:55:19;;;;;;;6.93;2.20;;;13.60;99.90;;;;;;5091888;28;20200;-64
2022/07/27 02:57:46;;;;;;;4.73;1.80;;;13.50;99.90;;;;;;5092060;28;20201;-64
2022/07/27 03:00:15;;;;;;;7.00;1.90;;;13.50;99.90;;;;;;5092145;28;20209;-64
2022/07/27 03:02:42;;;;;;;5.17;1.63;;;13.50;99.90;;;;;;5091852;28;20545;-64
2022/07/27 03:05:11;;;;;;;3.07;1.43;;;13.60;99.90;;;;;;5091417;28;20243;-64
2022/07/27 03:07:38;;;;;;;4.93;1.70;;;13.60;99.90;;;;;;5092062;28;20205;-64
2022/07/27 03:10:06;;;;;;;3.67;1.50;;;13.70;99.90;;;;;;5091846;28;20300;-64
2022/07/27 03:12:33;;;;;;;4.03;1.80;;;13.60;99.90;;;;;;5091784;28;20198;-64
2022/07/27 03:14:59;;;;;;;5.93;1.60;;;13.60;99.90;;;;;;5092263;28;20296;-64
2022/07/27 03:17:26;;;;;;;7.50;2.33;;;13.50;99.90;;;;;;5091252;28;20208;-64
2022/07/27 03:19:53;;;;;;;8.20;2.03;;;13.40;99.90;;;;;;5092228;28;20201;-64
2022/07/27 03:22:21;;;;;;;6.43;1.53;;;13.40;99.90;;;;;;5092512;28;20209;-64
2022/07/27 03:24:48;;;;;;;4.73;1.87;;;13.40;99.90;;;;;;5091304;28;20225;-64
2022/07/27 03:27:15;;;;;;;5.20;1.83;;;13.40;99.90;;;;;;5092196;28;20220;-65
2022/07/27 03:29:42;;;;;;;9.57;4.30;;;13.40;99.90;;;;;;5089850;28;20233;-64
2022/07/27 03:32:09;;;;;;;4.30;2.60;;;13.40;99.90;;;;;;5079133;28;20198;-64
2022/07/27 03:34:36;;;;;;;4.23;2.00;;;13.40;99.90;;;;;;5071709;28;20199;-65
2022/07/27 03:37:03;;;;;;;8.33;4.37;;;13.40;99.90;;;;;;5071418;28;20212;-64
2022/07/27 03:39:31;;;;;;;8.93;3.10;;;13.40;99.90;;;;;;5081547;28;20202;-65
2022/07/27 03:41:58;;;;;;;4.60;2.23;;;13.40;99.90;;;;;;5071238;28;20206;-64
2022/07/27 03:44:24;;;;;;;5.43;1.80;;;13.30;99.90;;;;;;5071357;28;20228;-64
2022/07/27 03:46:51;;;;;;;3.53;1.70;;;13.30;99.90;;;;;;5084590;28;20313;-64
2022/07/27 03:49:18;;;;;;;3.27;1.80;;;13.30;99.90;;;;;;5091244;28;20209;-65
2022/07/27 03:51:45;;;;;;;7.47;1.80;;;13.30;99.90;;;;;;5090938;28;20297;-65
2022/07/27 03:54:12;;;;;;;9.43;2.07;;;13.50;99.90;;;;;;5090783;28;20551;-64
2022/07/27 03:56:40;;;;;;;5.37;2.03;;;13.60;99.90;;;;;;5092197;28;20198;-64
2022/07/27 03:59:07;;;;;;;5.10;1.77;;;13.60;99.90;;;;;;5091840;28;20216;-64
2022/07/27 04:01:34;;;;;;;4.30;1.40;;;13.60;99.90;;;;;;5091884;28;20215;-64
2022/07/27 04:04:01;;;;;;;3.27;1.60;;;13.70;99.90;;;;;;5091059;28;20205;-65
2022/07/27 04:06:28;;;;;;;5.37;1.53;;;13.90;99.90;;;;;;5091776;28;20234;-64
2022/07/27 04:08:55;;;;;;;5.50;1.80;;;14.20;99.90;;;;;;5091036;28;20288;-64
2022/07/27 04:11:22;;;;;;;5.87;1.40;;;14.10;99.90;;;;;;5091418;28;20301;-64
2022/07/27 04:13:50;;;;;;;3.43;1.53;;;14.00;99.90;;;;;;5091325;28;20212;-64
2022/07/27 04:16:17;;;;;;;4.80;1.77;;;14.00;99.90;;;;;;5091580;28;20395;-64
2022/07/27 04:18:44;;;;;;;7.03;1.73;;;13.90;99.90;;;;;;5094951;28;20201;-64
2022/07/27 04:21:12;;;;;;;10.23;2.00;;;13.90;99.90;;;;;;5094714;28;20212;-64
2022/07/27 04:23:39;;;;;;;3.87;1.73;;;13.80;99.90;;;;;;5095007;28;20202;-64
2022/07/27 04:26:06;;;;;;;16.03;9.47;;;13.70;99.90;;;;;;5095054;28;20230;-64
2022/07/27 04:28:33;;;;;;;4.23;2.73;;;13.70;99.90;;;;;;5095626;28;20289;-64
2022/07/27 04:31:01;;;;;;;5.20;1.63;;;13.60;99.90;;;;;;5094400;28;20204;-64
2022/07/27 04:33:29;;;;;;;3.57;1.80;;;13.60;99.90;;;;;;5077989;28;20194;-65
2022/07/27 04:35:56;;;;;;;6.53;1.70;;;13.50;99.90;;;;;;5083151;28;20303;-64
2022/07/27 04:38:23;;;;;;;5.60;2.00;;;13.40;99.90;;;;;;5094977;28;20682;-64
2022/07/27 04:40:50;;;;;;;2.33;1.33;;;13.60;99.90;;;;;;5094458;28;20186;-64
2022/07/27 04:43:17;;;;;;;4.70;1.50;;;13.70;99.90;;;;;;5095165;28;20197;-64
2022/07/27 04:45:44;;;;;;;5.30;1.90;;;13.80;99.90;;;;;;5095518;28;20232;-64
2022/07/27 04:48:12;;;;;;;5.37;1.77;;;13.90;99.90;;;;;;5091639;28;20224;-65
2022/07/27 04:50:40;;;;;;;4.23;2.03;;;14.00;99.90;;;;;;5086739;28;20216;-65
2022/07/27 04:53:07;;;;;;;4.60;1.90;;;14.00;99.90;;;;;;5091939;28;20266;-65
2022/07/27 04:55:34;;;;;;;2.87;1.23;;;14.10;99.90;;;;;;5090767;28;20215;-65
2022/07/27 04:58:01;;;;;;;5.50;1.40;;;14.10;99.90;;;;;;5077687;28;20197;-65
2022/07/27 05:00:28;;;;;;;4.37;2.07;;;14.30;99.90;;;;;;5086422;28;20202;-64
2022/07/27 05:02:55;;;;;;;5.67;1.53;;;14.40;99.90;;;;;;5081158;28;20220;-65
2022/07/27 05:05:23;;;;;;;4.97;1.60;;;14.60;99.90;;;;;;5075579;28;20225;-64
2022/07/27 05:07:50;;;;;;;4.53;1.20;;;14.60;99.90;;;;;;5093712;28;20227;-65
2022/07/27 05:10:18;;;;;;;3.93;1.43;;;14.60;99.90;;;;;;5093707;28;20220;-65
2022/07/27 05:12:44;;;;;;;4.90;1.53;;;14.50;99.90;;;;;;5093675;28;20202;-64
2022/07/27 05:15:11;;;;;;;3.97;1.80;;;14.60;99.90;;;;;;5094236;28;20201;-65
2022/07/27 05:17:38;;;;;;;5.77;1.60;;;14.60;99.90;;;;;;5093254;28;20246;-65
2022/07/27 05:20:06;;;;;;;3.90;1.67;;;14.70;99.90;;;;;;5093529;28;20208;-65
2022/07/27 05:22:34;;;;;;;3.70;1.27;;;14.70;99.90;;;;;;5093402;28;20284;-65
2022/07/27 05:25:02;;;;;;;4.27;1.30;;;14.80;99.90;;;;;;5092385;28;20222;-65
2022/07/27 05:27:29;;;;;;;4.57;1.37;;;14.70;99.90;;;;;;5093792;28;20194;-64
2022/07/27 05:29:55;;;;;;;4.00;1.47;;;14.70;99.90;;;;;;5089258;28;20702;-65
2022/07/27 05:32:22;;;;;;;4.33;1.30;;;14.90;99.90;;;;;;5080354;28;20294;-65
2022/07/27 05:34:49;;;;;;;5.57;1.57;;;15.10;99.90;;;;;;5073040;28;20198;-65
2022/07/27 05:37:16;;;;;;;3.90;1.20;;;15.00;99.90;;;;;;5073785;28;20202;-65
2022/07/27 05:39:44;;;;;;;4.20;1.57;;;15.20;99.90;;;;;;5078952;28;20205;-65
2022/07/27 05:42:11;;;;;;;6.37;1.40;;;15.30;99.90;;;;;;5093724;28;20208;-65
2022/07/27 05:44:38;;;;;;;3.50;1.30;;;15.60;99.90;;;;;;5092862;28;20205;-65
2022/07/27 05:47:05;;;;;;;4.03;1.17;;;15.50;99.90;;;;;;5093581;28;20215;-65
2022/07/27 05:49:32;;;;;;;4.90;1.37;;;16.10;99.90;;;;;;5093270;28;20205;-65
2022/07/27 05:51:59;;;;;;;3.65;1.13;;;16.00;99.90;;;;;;5092891;28;20223;-65
2022/07/27 05:54:26;;;;;;;5.57;1.30;;;15.80;99.90;;;;;;5093563;28;20212;-65
2022/07/27 05:56:54;;;;;;;3.03;1.42;;;15.60;99.90;;;;;;5093793;28;20298;-65
2022/07/27 05:59:21;;;;;;;3.85;1.40;;;15.40;99.90;;;;;;5093307;28;20228;-65
2022/07/27 06:01:48;;;;;;;2.08;1.15;;;15.60;99.90;;;;;;5093218;28;20626;-64
2022/07/27 06:04:15;;;;;;;2.60;1.02;;;15.70;99.90;;;;;;5093155;28;20557;-65
2022/07/27 06:09:22;;;;;;;5.38;1.20;;;15.60;99.90;;;;;;5048623;28;20244;-64
2022/07/27 06:11:49;;;;;;;4.07;1.30;;;16.00;99.90;;;;;;5089995;28;20241;-65
2022/07/27 06:14:17;;;;;;;3.93;1.47;;;15.70;99.90;;;;;;5087485;28;20198;-65
2022/07/27 06:16:44;;;;;;;3.50;1.30;;;15.50;99.90;;;;;;5090922;28;20636;-65
2022/07/27 06:19:11;;;;;;;7.57;2.00;;;15.80;99.90;;;;;;5086940;28;20472;-65
2022/07/27 06:21:38;;;;;;;4.80;1.23;;;16.10;99.90;;;;;;5092597;28;20685;-65
2022/07/27 06:24:06;;;;;;;4.18;1.30;;;15.90;99.90;;;;;;5092870;28;20201;-65
2022/07/27 06:26:32;;;;;;;4.22;1.75;;;16.20;99.90;;;;;;5092337;28;20228;-65
2022/07/27 06:29:00;;;;;;;5.55;1.65;;;16.30;99.90;;;;;;5092599;28;20288;-65
2022/07/27 06:31:29;;;;;;;4.70;1.33;;;16.10;99.90;;;;;;5091863;28;20202;-65
2022/07/27 06:33:56;;;;;;;5.03;1.55;;;16.20;99.90;;;;;;5092204;28;20213;-65
2022/07/27 06:36:23;;;;;;;5.43;1.50;;;16.30;99.90;;;;;;5093029;28;20587;-65
2022/07/27 06:38:50;;;;;;;2.97;1.20;;;16.20;99.90;;;;;;5092163;28;20244;-65
2022/07/27 06:41:17;;;;;;;7.50;1.45;;;16.20;99.90;;;;;;5092238;28;20293;-65
2022/07/27 06:43:44;;;;;;;4.47;1.35;;;16.30;99.90;;;;;;5092270;28;20683;-65
2022/07/27 06:46:13;;;;;;;6.75;1.35;;;16.30;99.90;;;;;;5092938;28;20239;-65
2022/07/27 06:48:41;;;;;;;4.93;1.40;;;16.30;99.90;;;;;;5092653;28;20241;-65
2022/07/27 06:51:09;;;;;;;5.68;1.10;;;16.40;99.90;;;;;;5091524;28;20215;-65
2022/07/27 06:53:36;;;;;;;6.68;1.40;;;16.60;98.70;;;;;;5092231;28;20205;-65
2022/07/27 06:56:04;;;;;;;5.43;1.38;;;16.60;95.90;;;;;;5071964;28;20198;-65
2022/07/27 06:58:32;;;;;;;6.93;1.55;;;16.50;96.70;;;;;;5087539;28;20201;-65
2022/07/27 07:01:01;;;;;;;3.28;1.20;;;16.40;95.30;;;;;;5091995;28;20300;-65
2022/07/27 07:03:28;;;;;;;6.60;1.23;;;16.50;94.50;;;;;;5091189;28;20201;-64
2022/07/27 07:05:57;;;;;;;2.63;1.10;;;16.50;91.70;;;;;;5091068;28;20221;-65
2022/07/27 07:08:24;;;;;;;6.57;1.38;;;16.50;92.20;;;;;;5092330;28;20674;-65
2022/07/27 07:10:51;;;;;;;3.90;1.40;;;16.50;87.20;;;;;;5091459;28;20236;-65
2022/07/27 07:13:18;;;;;;;5.65;1.48;;;16.80;89.50;;;;;;5091995;28;20215;-65
2022/07/27 07:15:45;;;;;;;5.07;1.88;;;16.80;84.20;;;;;;5092481;28;20232;-65
2022/07/27 07:18:13;;;;;;;5.15;1.20;;;16.70;81.60;;;;;;5091642;28;20571;-65
2022/07/27 07:20:40;;;;;;;4.75;1.08;;;16.60;82.80;;;;;;5083023;28;20574;-65
2022/07/27 07:23:09;;;;;;;5.30;1.80;;;16.70;82.20;;;;;;5092022;28;20281;-65
2022/07/27 07:25:36;;;;;;;5.30;1.20;;;16.80;74.80;;;;;;5083788;28;20674;-65
2022/07/27 07:28:03;;;;;;;5.97;1.40;;;16.90;76.90;;;;;;5092227;28;20616;-65
2022/07/27 07:30:30;;;;;;;3.03;1.10;;;16.80;79.60;;;;;;5092211;28;20205;-65
2022/07/27 07:32:57;;;;;;;5.22;1.20;;;16.60;74.20;;;;;;5090544;28;20202;-64
2022/07/27 07:35:25;;;;;;;4.82;2.03;;;16.70;71.90;;;;;;5091142;28;20283;-65
2022/07/27 07:37:52;;;;;;;3.25;1.00;;;16.90;65.30;;;;;;5092105;28;20209;-64
2022/07/27 07:40:20;;;;;;;3.90;0.95;;;17.00;60.30;;;;;;5091369;28;20209;-65
2022/07/27 07:42:52;;;;;;;2.35;1.30;;;17.20;58.00;;;;;;5091713;28;20202;-65
2022/07/27 07:45:21;;;;;;;2.80;1.00;;;17.20;57.00;;;;;;5091285;28;20201;-65
2022/07/27 07:47:48;;;;;;;3.05;0.98;;;17.40;57.70;;;;;;5091978;28;20580;-65
2022/07/27 07:50:15;;;;;;;4.05;0.82;;;17.50;55.10;;;;;;5091632;28;20208;-65
2022/07/27 07:52:42;;;;;;;5.13;1.30;;;17.50;52.30;;;;;;5092993;28;20207;-65
2022/07/27 07:55:09;;;;;;;5.57;1.35;;;17.50;48.20;;;;;;5095666;28;20208;-65
2022/07/27 07:57:38;;;;;;;2.97;1.05;;;17.60;47.90;;;;;;5095914;28;20213;-65
2022/07/27 08:00:07;;;;;;;3.13;0.80;;;17.70;46.00;;;;;;5084898;28;20639;-65
2022/07/27 08:02:42;;;;;;;4.70;1.00;;;17.80;43.00;;;;;;5086585;28;20589;-65
2022/07/27 08:05:09;;;;;;;3.00;1.42;;;17.90;39.00;;;;;;5096019;28;20205;-65
2022/07/27 08:07:36;;;;;;;5.65;1.73;;;17.70;39.60;;;;;;5086982;28;20227;-69
2022/07/27 08:10:04;;;;;;;5.47;0.90;;;17.80;35.10;;;;;;5095053;28;20206;-70
2022/07/27 08:12:31;;;;;;;5.38;1.33;;;17.90;37.50;;;;;;5095239;28;20213;-69
2022/07/27 08:14:59;;;;;;;3.90;1.20;;;18.00;37.40;;;;;;5094815;28;20211;-70
2022/07/27 08:17:26;;;;;;;5.10;1.30;;;18.00;36.40;;;;;;5095307;28;20542;-70
2022/07/27 08:19:53;;;;;;;2.33;1.13;;;18.10;35.00;;;;;;5094881;28;20208;-70
2022/07/27 08:22:20;;;;;;;4.97;1.25;;;18.00;35.20;;;;;;5095292;28;20204;-69
2022/07/27 08:24:47;;;;;;;8.02;1.15;;;17.90;32.10;;;;;;5094598;28;20212;-70
2022/07/27 08:27:13;;;;;;;2.75;1.02;;;18.00;33.10;;;;;;5095301;28;20232;-70
2022/07/27 08:29:40;;;;;;;3.47;1.00;;;18.10;33.70;;;;;;5095274;28;20222;-69
2022/07/27 08:32:09;;;;;;;3.97;1.00;;;18.40;32.20;;;;;;5093937;28;20186;-70
2022/07/27 08:34:36;;;;;;;4.00;0.88;;;18.80;30.80;;;;;;5095064;28;20243;-69
2022/07/27 08:37:02;;;;;;;3.58;1.40;;;18.70;28.70;;;;;;5094126;28;20221;-69
2022/07/27 08:39:29;;;;;;;3.08;0.98;;;18.80;29.60;;;;;;5094750;28;20300;-69
2022/07/27 08:42:02;;;;;;;2.85;1.10;;;18.60;29.10;;;;;;5094936;28;20340;-70
2022/07/27 08:44:31;;;;;;;3.55;0.95;;;18.40;30.10;;;;;;5094208;28;20235;-69
2022/07/27 08:47:00;;;;;;;2.97;0.93;;;18.10;29.60;;;;;;5096605;28;20228;-70
2022/07/27 08:49:29;;;;;;;3.08;1.13;;;18.10;31.30;;;;;;5093297;28;20204;-69
2022/07/27 08:51:57;;;;;;;5.30;1.00;;;18.70;32.00;;;;;;5083453;28;20202;-69
2022/07/27 08:54:25;;;;;;;2.42;0.70;;;19.10;30.90;;;;;;5091039;28;20202;-69
2022/07/27 08:56:52;;;;;;;2.83;1.23;;;18.70;26.50;;;;;;5079550;28;20200;-69
2022/07/27 08:59:19;;;;;;;4.07;1.10;;;18.60;27.20;;;;;;5090973;28;20293;-69
2022/07/27 09:01:46;;;;;;;3.70;1.13;;;18.90;28.30;;;;;;5085936;28;20675;-69
2022/07/27 09:04:13;;;;;;;8.65;1.33;;;19.20;25.20;;;;;;5093270;28;20206;-69
2022/07/27 09:06:46;;;;;;;2.08;0.95;;;19.10;25.90;;;;;;5094517;28;20585;-69
2022/07/27 09:09:15;;;;;;;2.35;0.95;;;18.70;26.40;;;;;;5094223;28;20652;-69
2022/07/27 09:11:42;;;;;;;3.08;1.10;;;18.60;27.00;;;;;;5093774;28;20570;-69
2022/07/27 09:14:11;;;;;;;2.08;0.75;;;18.50;24.20;;;;;;5094356;28;20194;-70
2022/07/27 09:16:39;;;;;;;1.85;1.02;;;18.50;26.00;;;;;;5084743;28;20202;-69
2022/07/27 09:19:08;;;;;;;4.70;1.45;;;18.60;24.90;;;;;;5079350;28;20242;-70
2022/07/27 09:21:35;;;;;;;4.65;1.23;;;18.70;24.50;;;;;;5073058;28;20202;-70
2022/07/27 09:24:09;;;;;;;4.25;0.75;;;18.90;25.10;;;;;;5073944;28;20208;-70
2022/07/27 09:26:37;;;;;;;1.23;0.80;;;18.80;22.80;;;;;;5081262;28;20225;-69
2022/07/27 09:29:07;;;;;;;3.97;1.00;;;19.00;18.30;;;;;;5094453;28;20204;-69
2022/07/27 09:31:41;;;;;;;3.15;0.88;;;19.60;17.60;;;;;;5092938;28;20202;-70
2022/07/27 09:34:08;;;;;;;4.10;0.90;;;20.20;15.70;;;;;;5093390;28;20216;-70
2022/07/27 09:36:50;;;;;;;2.85;0.98;;;19.40;16.80;;;;;;5093816;28;20253;-70
2022/07/27 09:39:21;;;;;;;3.90;1.48;;;19.30;18.60;;;;;;5093388;28;20229;-70
2022/07/27 09:41:49;;;;;;;2.53;0.95;;;19.30;17.90;;;;;;5093744;28;20243;-70
2022/07/27 09:44:17;;;;;;;2.78;1.05;;;19.50;17.00;;;;;;5093268;28;20220;-69
2022/07/27 09:46:47;;;;;;;2.35;1.02;;;20.70;15.30;;;;;;5093200;28;20260;-70
2022/07/27 09:49:28;;;;;;;2.35;0.70;;;20.70;11.90;;;;;;5086972;28;20417;-69
2022/07/27 09:51:55;;;;;;;1.83;0.65;;;20.30;11.30;;;;;;5083597;28;20208;-69
2022/07/27 09:54:24;;;;;;;2.72;0.73;;;21.40;11.20;;;;;;5093865;28;20613;-70
2022/07/27 09:57:00;;;;;;;3.85;0.90;;;21.40;8.80;;;;;;5092635;28;20651;-69
2022/07/27 09:59:28;;;;;;;4.20;1.45;;;21.20;8.80;;;;;;5093175;28;20205;-69
2022/07/27 10:01:55;;;;;;;4.28;1.00;;;21.60;6.90;;;;;;5093351;28;20237;-70
2022/07/27 10:04:23;;;;;;;1.42;0.80;;;21.50;6.50;;;;;;5093454;28;20205;-69
2022/07/27 10:06:51;;;;;;;3.90;0.65;;;20.70;6.50;;;;;;5093522;28;20325;-70
2022/07/27 10:09:19;;;;;;;1.42;0.65;;;20.40;6.70;;;;;;5093587;28;20670;-69
2022/07/27 10:11:48;;;;;;;1.60;0.57;;;20.50;6.40;;;;;;5092420;28;20221;-70
2022/07/27 10:14:15;;;;;;;1.13;0.60;;;20.90;5.20;;;;;;5092682;28;20206;-70
2022/07/27 10:16:43;;;;;;;2.75;1.10;;;21.40;4.10;;;;;;5093732;28;20292;-70
2022/07/27 10:19:15;;;;;;;3.63;1.00;;;22.20;1.60;;;;;;5092496;28;20194;-70
2022/07/27 10:21:45;;;;;;;2.63;0.70;;;22.70;2.10;;;;;;5090480;28;20201;-70
2022/07/27 10:24:24;;;;;;;1.05;0.90;;;22.20;1.00;;;;;;5071664;28;20259;-70
2022/07/27 10:26:53;;;;;;;1.92;0.77;;;21.70;2.00;;;;;;5090246;28;20213;-70
2022/07/27 10:29:21;;;;;;;3.08;0.95;;;21.50;1.10;;;;;;5092708;28;20221;-70
2022/07/27 10:31:59;;;;;;;4.43;0.85;;;21.00;1.00;;;;;;5093102;28;20205;-70
2022/07/27 10:34:34;;;;;;;1.77;0.80;;;20.80;1.00;;;;;;5092406;28;20205;-70
2022/07/27 10:37:09;;;;;;;2.03;1.00;;;20.90;1.00;;;;;;5088514;28;20201;-69
2022/07/27 10:39:38;;;;;;;2.15;0.70;;;22.20;1.10;;;;;;5080157;28;20254;-70
2022/07/27 10:42:27;;;;;;;1.65;0.82;;;22.60;2.20;;;;;;5091682;28;20206;-69
2022/07/27 10:45:06;;;;;;;0.98;0.70;;;21.00;1.80;;;;;;5092182;28;20207;-69
2022/07/27 10:47:37;;;;;;;3.13;0.88;;;21.20;4.10;;;;;;5092397;28;20236;-69
2022/07/27 10:50:32;;;;;;;3.20;0.90;;;21.10;2.40;;;;;;5092833;28;20236;-70
2022/07/27 10:53:05;;;;;;;1.15;0.98;;;21.60;3.00;;;;;;5091315;28;20596;-70
2022/07/27 10:55:48;;;;;;;2.28;1.00;;;22.60;3.00;;;;;;5092177;28;20259;-69
2022/07/27 10:58:46;;;;;;;1.17;0.63;;;23.00;2.70;;;;;;5092669;28;20204;-70
2022/07/27 11:01:14;;;;;;;2.50;0.82;;;23.60;1.30;;;;;;5091080;28;20205;-70
2022/07/27 11:03:46;;;;;;;4.05;1.40;;;23.80;1.10;;;;;;5092031;28;20639;-70
2022/07/27 11:06:23;;;;;;;2.25;1.00;;;22.70;1.30;;;;;;5090780;28;20555;-70
2022/07/27 11:08:51;;;;;;;4.45;1.15;;;22.20;1.80;;;;;;5092342;28;20236;-69
2022/07/27 11:11:20;;;;;;;5.05;1.23;;;21.70;1.00;;;;;;5091402;28;20205;-69
2022/07/27 11:13:50;;;;;;;2.58;0.88;;;22.30;1.00;;;;;;5083657;28;20203;-70
2022/07/27 11:16:18;;;;;;;3.13;1.23;;;22.40;1.00;;;;;;5086004;28;20198;-70
2022/07/27 11:18:52;;;;;;;2.85;1.00;;;22.70;1.10;;;;;;5089771;28;20206;-70
2022/07/27 11:21:22;;;;;;;4.05;1.35;;;22.10;1.00;;;;;;5091735;28;20204;-69
2022/07/27 11:23:51;;;;;;;4.97;1.23;;;21.90;1.00;;;;;;5092103;28;20206;-69
2022/07/27 11:26:19;;;;;;;2.60;0.70;;;22.00;1.00;;;;;;5093465;28;20211;-70
2022/07/27 11:28:47;;;;;;;3.85;1.05;;;22.30;1.00;;;;;;5096489;28;20221;-71
2022/07/27 11:31:15;;;;;;;2.53;1.10;;;22.10;1.00;;;;;;5095656;28;20673;-70
2022/07/27 11:33:52;;;;;;;4.03;1.05;;;23.10;1.00;;;;;;5095623;28;20197;-70
2022/07/27 11:36:20;;;;;;;2.45;0.98;;;23.10;1.00;;;;;;5095704;28;20201;-69
2022/07/27 11:38:48;;;;;;;3.30;1.05;;;22.60;1.00;;;;;;5095341;28;20629;-69
2022/07/27 11:41:23;;;;;;;5.38;1.77;;;22.50;1.00;;;;;;5094086;28;20252;-70
2022/07/27 11:43:52;;;;;;;2.78;1.00;;;21.40;1.10;;;;;;5094570;28;20561;-70
2022/07/27 11:46:22;;;;;;;2.33;0.93;;;21.80;3.60;;;;;;5095289;28;20201;-69
2022/07/27 11:48:52;;;;;;;2.55;1.08;;;22.60;1.70;;;;;;5096074;28;20218;-71
2022/07/27 11:51:20;;;;;;;2.88;1.30;;;22.90;1.00;;;;;;5087078;28;20199;-70
2022/07/27 11:53:47;;;;;;;3.03;1.00;;;23.30;1.00;;;;;;5095116;28;20212;-69
2022/07/27 11:56:21;;;;;;;5.10;1.50;;;24.00;1.00;;;;;;5087269;28;20201;-69
2022/07/27 11:59:02;;;;;;;2.38;1.00;;;23.60;1.00;;;;;;5095982;28;20237;-69
2022/07/27 12:01:32;;;;;;;4.28;1.15;;;22.20;1.00;;;;;;5075319;28;20208;-69
2022/07/27 12:04:07;;;;;;;2.95;1.08;;;22.70;1.00;;;;;;5075456;28;20281;-69
2022/07/27 12:06:37;;;;;;;1.67;0.80;;;22.60;1.00;;;;;;5089481;28;20209;-70
2022/07/27 12:09:06;;;;;;;1.85;0.70;;;22.40;1.00;;;;;;5095475;28;20225;-70
2022/07/27 12:11:50;;;;;;;3.15;1.20;;;22.20;1.00;;;;;;5095131;28;20215;-70
2022/07/27 12:14:19;;;;;;;3.35;1.40;;;21.90;1.00;;;;;;5095662;28;20233;-70
2022/07/27 12:16:46;;;;;;;3.88;1.40;;;22.80;1.60;;;;;;5095210;28;20206;-69
2022/07/27 12:19:22;;;;;;;4.10;1.38;;;23.10;1.00;;;;;;5095147;28;20216;-69
2022/07/27 12:21:52;;;;;;;4.72;1.50;;;22.70;2.90;;;;;;5094744;28;20201;-69
2022/07/27 12:24:19;;;;;;;2.45;0.98;;;21.90;1.80;;;;;;5095305;28;20251;-70
2022/07/27 12:27:02;;;;;;;4.38;1.02;;;21.80;2.40;;;;;;5094636;28;20259;-69
2022/07/27 12:29:31;;;;;;;1.50;0.98;;;22.50;1.00;;;;;;5094656;28;20255;-69
2022/07/27 12:32:02;;;;;;;3.47;1.15;;;22.70;1.00;;;;;;5094725;28;20204;-70
2022/07/27 12:34:33;;;;;;;3.75;1.20;;;22.00;1.00;;;;;;5094644;28;20600;-70
2022/07/27 12:37:00;;;;;;;3.30;1.25;;;22.00;1.40;;;;;;5095033;28;20201;-69
2022/07/27 12:39:28;;;;;;;2.00;1.05;;;22.70;1.70;;;;;;5095224;28;20212;-69
2022/07/27 12:42:06;;;;;;;2.45;1.38;;;22.10;1.00;;;;;;5095149;28;20296;-69
2022/07/27 12:44:36;;;;;;;1.92;1.42;;;22.70;1.00;;;;;;5094143;28;20247;-70
2022/07/27 12:49:59;;;;;;;1.85;1.27;;;23.00;1.00;;;;;;5089921;28;20201;-69
2022/07/27 12:52:26;;;;;;;2.33;1.10;;;22.70;1.00;;;;;;5089598;28;20307;-70
2022/07/27 12:54:53;;;;;;;7.82;1.33;;;22.80;1.00;;;;;;5094306;28;20788;-69
2022/07/27 12:57:20;;;;;;;2.40;0.95;;;22.70;1.00;;;;;;5088882;28;20221;-71
2022/07/27 12:59:49;;;;;;;2.40;1.15;;;22.50;1.00;;;;;;5091824;28;20647;-71
2022/07/27 13:02:16;;;;;;;2.03;1.10;;;23.00;1.00;;;;;;5080955;28;20194;-70
2022/07/27 13:04:43;;;;;;;3.80;1.60;;;22.60;1.00;;;;;;5085476;28;20209;-70